This is the latest recevied weather packets stored in our database for station/object DB0LS-15. If no packets are shown the sender has not sent any weather packets the latest 10 day(s).
| Time | Temp. | Humidity | Pressure | Rain* | Wind** | Luminosity | Snow |
|---|---|---|---|---|---|---|---|
| 1777438233 | 3.89° C | 66% | 1010.7 hPa | 0 mm | - | - | - |
| 1777437019 | 3.33° C | 67% | 1010.7 hPa | 0 mm | - | - | - |
| 1777435867 | 3.33° C | 68% | 1010.6 hPa | 0 mm | - | - | - |
| 1777428641 | 4.44° C | 63% | 1009.6 hPa | 0 mm | - | - | - |
| 1777420816 | 6.67° C | 53% | 1009 hPa | 0 mm | - | - | - |
| 1777417840 | 7.78° C | 48% | 1008.7 hPa | 0 mm | - | - | - |
| 1777414258 | 8.33° C | 44% | 1008.5 hPa | 0 mm | - | - | - |
| 1777413654 | 8.33° C | 44% | 1008.6 hPa | 0 mm | - | - | - |
| 1777411228 | 8.89° C | 42% | 1008.1 hPa | 0 mm | - | - | - |
| 1777410618 | 8.89° C | 41% | 1008.1 hPa | 0 mm | - | - | - |
| 1777410069 | 9.44° C | 40% | 1008.1 hPa | 0 mm | - | - | - |
| 1777409466 | 9.44° C | 40% | 1008 hPa | 0 mm | - | - | - |
| 1777408857 | 9.44° C | 40% | 1007.9 hPa | 0 mm | - | - | - |
| 1777408253 | 9.44° C | 41% | 1007.9 hPa | 0 mm | - | - | - |
| 1777407643 | 9.44° C | 41% | 1007.8 hPa | 0 mm | - | - | - |
| 1777407040 | 9.44° C | 41% | 1007.8 hPa | 0 mm | - | - | - |
| 1777406432 | 9.44° C | 40% | 1007.7 hPa | 0 mm | - | - | - |
| 1777405822 | 9.44° C | 40% | 1007.7 hPa | 0 mm | - | - | - |
| 1777404670 | 10° C | 39% | 1007.4 hPa | 0 mm | - | - | - |
| 1777404066 | 10° C | 39% | 1007.4 hPa | 0 mm | - | - | - |
| 1777403458 | 10.56° C | 38% | 1007.2 hPa | 0 mm | - | - | - |
| 1777401033 | 11.11° C | 37% | 1006.8 hPa | 0 mm | - | - | - |
| 1777399216 | 12.22° C | 33% | 1006.5 hPa | 0 mm | - | - | - |
| 1777397453 | 12.78° C | 31% | 1006.3 hPa | 0 mm | - | - | - |
| 1777396240 | 13.33° C | 30% | 1006.3 hPa | 0 mm | - | - | - |
* Rain latest hour (hover to see other rain measurements)
** Current wind speed in m/s (hover to see current wind gust speed)